createdAt,value
2023-03-16T00:01:26.844Z,7.80
2023-03-16T00:03:54.807Z,7.91
2023-03-16T00:06:25.769Z,7.78
2023-03-16T00:08:58.905Z,7.88
2023-03-16T00:11:26.976Z,7.96
2023-03-16T00:13:54.982Z,8.08
2023-03-16T00:16:22.958Z,8.11
2023-03-16T00:18:50.909Z,7.95
2023-03-16T00:21:18.819Z,8.00
2023-03-16T00:23:48.188Z,7.82
2023-03-16T00:26:16.153Z,7.42
2023-03-16T00:28:44.042Z,7.52
2023-03-16T00:31:14.819Z,7.49
2023-03-16T00:33:43.974Z,7.53
2023-03-16T00:36:12.488Z,7.59
2023-03-16T00:38:45.519Z,7.80
2023-03-16T00:41:16.943Z,7.70
2023-03-16T00:43:45.726Z,7.68
2023-03-16T00:46:15.320Z,7.85
2023-03-16T00:48:44.907Z,7.81
2023-03-16T00:51:15.410Z,7.95
2023-03-16T00:53:44.824Z,7.96
2023-03-16T00:56:15.165Z,7.93
2023-03-16T00:58:44.269Z,7.87
2023-03-16T01:01:14.909Z,7.78
2023-03-16T01:03:43.261Z,7.90
2023-03-16T01:06:13.213Z,7.98
2023-03-16T01:08:42.155Z,8.01
2023-03-16T01:11:11.984Z,8.01
2023-03-16T01:13:41.610Z,8.06
2023-03-16T01:16:11.257Z,8.21
2023-03-16T01:18:39.264Z,8.25
2023-03-16T01:21:09.950Z,8.16
2023-03-16T01:23:38.263Z,8.00
2023-03-16T01:26:07.880Z,7.95
2023-03-16T01:28:36.264Z,7.82
2023-03-16T01:31:08.339Z,7.95
2023-03-16T01:33:36.851Z,7.93
2023-03-16T01:36:08.220Z,8.12
2023-03-16T01:38:36.197Z,8.07
2023-03-16T01:41:04.828Z,8.01
2023-03-16T01:43:34.821Z,8.16
2023-03-16T01:46:28.876Z,8.03
2023-03-16T01:49:02.084Z,7.99
2023-03-16T01:51:35.163Z,7.97
2023-03-16T01:54:07.814Z,7.93
2023-03-16T01:56:41.800Z,7.91
2023-03-16T01:59:15.476Z,7.92
2023-03-16T02:01:45.637Z,7.92
2023-03-16T02:04:25.229Z,7.64
2023-03-16T02:06:56.784Z,7.58
2023-03-16T02:09:26.275Z,7.67
2023-03-16T02:11:56.228Z,7.65
2023-03-16T02:14:24.944Z,7.27
2023-03-16T02:16:55.813Z,7.27
2023-03-16T02:19:37.170Z,7.28
2023-03-16T02:22:07.877Z,7.40
2023-03-16T02:24:36.490Z,7.26
2023-03-16T02:27:07.396Z,7.43
2023-03-16T02:29:55.112Z,7.44
2023-03-16T02:32:24.837Z,7.67
2023-03-16T02:34:53.119Z,7.77
2023-03-16T02:37:21.882Z,7.93
2023-03-16T02:39:49.820Z,7.98
2023-03-16T02:42:21.950Z,7.78
2023-03-16T02:44:55.667Z,7.73
2023-03-16T02:47:29.853Z,7.64
2023-03-16T02:49:57.845Z,7.77
2023-03-16T02:52:25.819Z,7.60
2023-03-16T02:54:53.802Z,7.50
2023-03-16T02:57:21.731Z,7.38
2023-03-16T02:59:51.980Z,7.40
2023-03-16T03:02:19.978Z,7.55
2023-03-16T03:04:47.980Z,7.66
2023-03-16T03:07:17.334Z,7.73
2023-03-16T03:09:45.256Z,7.77
2023-03-16T03:12:14.305Z,7.91
2023-03-16T03:14:42.258Z,7.83
2023-03-16T03:17:13.427Z,7.93
2023-03-16T03:19:41.703Z,8.02
2023-03-16T03:22:09.874Z,8.07
2023-03-16T03:24:37.795Z,8.06
2023-03-16T03:27:06.499Z,8.07
2023-03-16T03:29:35.528Z,7.82
2023-03-16T03:32:03.532Z,7.78
2023-03-16T03:34:33.393Z,7.82
2023-03-16T03:37:01.459Z,7.64
2023-03-16T03:39:29.356Z,7.84
2023-03-16T03:41:57.226Z,8.05
2023-03-16T03:44:27.043Z,7.99
2023-03-16T03:46:55.032Z,7.78
2023-03-16T03:49:22.966Z,7.56
2023-03-16T03:51:52.448Z,7.36
2023-03-16T03:54:20.370Z,7.34
2023-03-16T03:56:48.296Z,7.23
2023-03-16T03:59:16.181Z,7.13
2023-03-16T04:01:44.192Z,6.94
2023-03-16T04:04:12.265Z,6.90
2023-03-16T04:06:40.165Z,6.91
2023-03-16T04:09:10.017Z,6.70
2023-03-16T04:11:37.940Z,6.77
2023-03-16T04:14:05.990Z,6.82
2023-03-16T04:16:34.180Z,6.95
2023-03-16T04:19:02.116Z,7.07
2023-03-16T04:21:30.056Z,7.17
2023-03-16T04:23:57.953Z,6.83
2023-03-16T04:26:27.273Z,6.82
2023-03-16T04:28:55.186Z,6.64
2023-03-16T04:31:23.193Z,6.63
2023-03-16T04:33:54.656Z,6.65
2023-03-16T04:36:24.613Z,6.53
2023-03-16T04:38:52.790Z,6.26
2023-03-16T04:41:20.981Z,6.35
2023-03-16T04:43:50.327Z,6.41
2023-03-16T04:46:18.253Z,6.31
2023-03-16T04:48:46.296Z,6.36
2023-03-16T04:51:14.370Z,6.26
2023-03-16T04:53:42.354Z,6.02
2023-03-16T04:56:18.126Z,6.21
2023-03-16T04:58:46.500Z,6.07
2023-03-16T05:01:17.292Z,6.08
2023-03-16T05:03:46.004Z,5.90
2023-03-16T05:06:14.380Z,6.03
2023-03-16T05:08:42.344Z,6.16
2023-03-16T05:11:10.602Z,5.95
2023-03-16T05:13:38.559Z,5.98
2023-03-16T05:16:07.280Z,5.76
2023-03-16T05:18:36.681Z,5.93
2023-03-16T05:21:04.677Z,5.84
2023-03-16T05:23:32.615Z,5.93
2023-03-16T05:26:01.180Z,5.89
2023-03-16T05:28:29.231Z,6.03
2023-03-16T05:30:57.531Z,5.88
2023-03-16T05:33:25.709Z,5.73
2023-03-16T05:35:55.141Z,5.83
2023-03-16T05:38:23.106Z,5.55
2023-03-16T05:40:53.238Z,5.53
2023-03-16T05:43:21.682Z,5.55
2023-03-16T05:45:49.805Z,5.41
2023-03-16T05:48:17.724Z,5.41
2023-03-16T05:50:45.601Z,5.45
2023-03-16T05:53:15.454Z,5.24
2023-03-16T05:55:43.377Z,5.40
2023-03-16T05:58:11.911Z,5.15
2023-03-16T06:00:40.352Z,5.30
2023-03-16T06:03:08.367Z,5.42
2023-03-16T06:05:36.392Z,5.56
2023-03-16T06:08:04.296Z,5.37
2023-03-16T06:10:33.690Z,5.37
2023-03-16T06:13:01.583Z,5.56
2023-03-16T06:15:30.641Z,5.62
2023-03-16T06:17:58.579Z,5.65
2023-03-16T06:20:26.744Z,5.65
2023-03-16T06:22:54.776Z,5.51
2023-03-16T06:25:22.684Z,5.63
2023-03-16T06:27:52.054Z,5.49
2023-03-16T06:30:20.135Z,5.39
2023-03-16T06:32:48.123Z,5.35
2023-03-16T06:35:16.348Z,5.30
2023-03-16T06:37:44.264Z,5.43
2023-03-16T06:40:13.478Z,5.51
2023-03-16T06:42:41.448Z,5.47
2023-03-16T06:45:13.096Z,5.47
2023-03-16T06:47:41.358Z,5.21
2023-03-16T06:50:10.909Z,5.34
2023-03-16T06:52:38.936Z,5.28
2023-03-16T06:55:07.931Z,5.41
2023-03-16T06:57:35.918Z,5.42
2023-03-16T07:00:04.823Z,5.39
2023-03-16T07:02:35.828Z,5.43
2023-03-16T07:05:04.059Z,5.48
2023-03-16T07:07:32.301Z,5.56
2023-03-16T07:10:00.261Z,5.58
2023-03-16T07:12:28.156Z,5.56
2023-03-16T07:14:56.062Z,5.53
2023-03-16T07:17:23.944Z,5.59
2023-03-16T07:19:53.231Z,5.52
2023-03-16T07:22:22.082Z,5.59
2023-03-16T07:24:56.028Z,5.70
2023-03-16T07:27:24.462Z,5.64
2023-03-16T07:29:53.208Z,5.42
2023-03-16T07:32:21.726Z,5.41
2023-03-16T07:34:49.757Z,5.37
2023-03-16T07:37:25.071Z,5.30
2023-03-16T07:39:53.645Z,5.23
2023-03-16T07:42:22.746Z,5.15
2023-03-16T07:44:51.882Z,5.25
2023-03-16T07:47:20.002Z,5.15
2023-03-16T07:49:47.932Z,5.38
2023-03-16T07:52:15.868Z,5.27
2023-03-16T07:54:45.160Z,5.47
2023-03-16T07:57:13.131Z,5.33
2023-03-16T07:59:41.649Z,5.52
2023-03-16T08:02:13.685Z,5.36
2023-03-16T08:04:43.218Z,5.30
2023-03-16T08:07:11.408Z,5.52
2023-03-16T08:09:39.506Z,5.31
2023-03-16T08:12:11.342Z,5.33
2023-03-16T08:14:39.881Z,5.15
2023-03-16T08:17:08.595Z,5.29
2023-03-16T08:19:36.571Z,5.39
2023-03-16T08:22:04.978Z,5.33
2023-03-16T08:24:33.508Z,5.32
2023-03-16T08:27:01.976Z,5.32
2023-03-16T08:29:31.439Z,5.14
2023-03-16T08:32:00.066Z,5.23
2023-03-16T08:34:28.881Z,5.27
2023-03-16T08:36:56.802Z,5.26
2023-03-16T08:39:24.932Z,5.15
2023-03-16T08:41:54.068Z,5.50
2023-03-16T08:44:23.885Z,5.36
2023-03-16T08:46:53.562Z,5.40
2023-03-16T08:49:21.915Z,5.34
2023-03-16T08:51:49.851Z,5.44
2023-03-16T08:54:17.812Z,5.42
2023-03-16T08:56:45.712Z,5.62
2023-03-16T08:59:23.555Z,5.64
2023-03-16T09:01:58.726Z,5.61
2023-03-16T09:04:26.769Z,5.51
2023-03-16T09:07:10.231Z,5.51
2023-03-16T09:09:38.493Z,5.39
2023-03-16T09:12:07.190Z,5.57
2023-03-16T09:14:37.659Z,5.57
2023-03-16T09:17:07.773Z,5.44
2023-03-16T09:19:53.839Z,5.47
2023-03-16T09:22:23.179Z,5.36
2023-03-16T09:24:51.423Z,5.64
2023-03-16T09:27:20.734Z,5.55
2023-03-16T09:29:49.525Z,5.63
2023-03-16T09:32:18.803Z,5.65
2023-03-16T09:34:46.810Z,5.72
2023-03-16T09:37:16.402Z,5.61
2023-03-16T09:39:45.718Z,5.78
2023-03-16T09:42:20.922Z,5.74
2023-03-16T09:45:05.557Z,5.61
2023-03-16T09:47:37.168Z,5.63
2023-03-16T09:50:09.837Z,5.70
2023-03-16T09:52:45.567Z,5.71
2023-03-16T09:55:27.288Z,5.85
2023-03-16T09:57:55.537Z,5.98
2023-03-16T10:00:26.507Z,6.09
2023-03-16T10:03:24.407Z,5.81
2023-03-16T10:05:57.246Z,6.15
2023-03-16T10:08:26.780Z,6.30
2023-03-16T10:11:18.766Z,6.25
2023-03-16T10:13:51.633Z,6.01
2023-03-16T10:16:23.383Z,6.25
2023-03-16T10:19:03.177Z,6.32
2023-03-16T10:21:34.573Z,6.23
2023-03-16T10:24:05.920Z,6.37
2023-03-16T10:26:40.923Z,6.37
2023-03-16T10:29:14.621Z,6.33
2023-03-16T10:31:43.636Z,6.18
2023-03-16T10:34:13.212Z,6.26
2023-03-16T10:36:45.297Z,6.18
2023-03-16T10:39:14.580Z,6.16
2023-03-16T10:41:45.302Z,6.40
2023-03-16T10:44:15.219Z,6.28
2023-03-16T10:46:48.392Z,6.17
2023-03-16T10:49:25.654Z,6.14
2023-03-16T10:51:55.777Z,6.29
2023-03-16T10:54:30.635Z,6.34
2023-03-16T10:56:59.094Z,6.20
2023-03-16T10:59:34.328Z,6.62
2023-03-16T11:02:05.435Z,6.47
2023-03-16T11:04:35.701Z,6.68
2023-03-16T11:07:03.655Z,6.58
2023-03-16T11:09:34.641Z,6.74
2023-03-16T11:12:15.539Z,6.68
2023-03-16T11:14:45.722Z,6.54
2023-03-16T11:17:18.048Z,6.40
2023-03-16T11:19:54.525Z,6.58
2023-03-16T11:22:25.299Z,6.57
2023-03-16T11:24:58.283Z,6.64
2023-03-16T11:27:32.162Z,6.61
2023-03-16T11:30:06.688Z,6.47
2023-03-16T11:32:38.116Z,6.10
2023-03-16T11:35:17.725Z,6.20
2023-03-16T11:37:58.914Z,6.24
2023-03-16T11:40:38.624Z,6.39
2023-03-16T11:43:23.389Z,6.33
2023-03-16T11:46:03.230Z,6.48
2023-03-16T11:48:37.992Z,6.51
2023-03-16T11:51:15.634Z,6.70
2023-03-16T11:53:50.761Z,6.76
2023-03-16T11:56:30.700Z,6.54
2023-03-16T11:59:14.405Z,6.49
2023-03-16T12:02:00.868Z,6.46
2023-03-16T12:04:46.549Z,6.57
2023-03-16T12:07:27.462Z,6.77
2023-03-16T12:10:23.826Z,6.58
2023-03-16T12:13:07.761Z,6.57
2023-03-16T12:15:41.970Z,6.74
2023-03-16T12:18:15.377Z,6.71
2023-03-16T12:20:50.374Z,6.88
2023-03-16T12:23:25.403Z,6.86
2023-03-16T12:25:54.924Z,6.87
2023-03-16T12:28:25.430Z,6.85
2023-03-16T12:31:09.390Z,6.89
2023-03-16T12:33:59.929Z,6.80
2023-03-16T12:36:51.919Z,6.98
2023-03-16T12:39:34.253Z,7.12
2023-03-16T12:42:15.997Z,6.93
2023-03-16T12:44:49.308Z,6.79
2023-03-16T12:47:24.014Z,6.98
2023-03-16T12:49:52.545Z,6.95
2023-03-16T12:52:20.470Z,6.89
2023-03-16T12:54:54.962Z,6.87
2023-03-16T12:57:27.204Z,6.97
2023-03-16T13:00:00.375Z,6.89
2023-03-16T13:02:32.217Z,6.77
2023-03-16T13:05:03.065Z,6.87
2023-03-16T13:07:33.468Z,6.99
2023-03-16T13:10:10.140Z,6.94
2023-03-16T13:12:41.843Z,6.80
2023-03-16T13:15:28.395Z,6.56
2023-03-16T13:18:06.867Z,6.62
2023-03-16T13:20:36.262Z,6.63
2023-03-16T13:23:22.213Z,6.86
2023-03-16T13:26:04.386Z,6.85
2023-03-16T13:28:34.770Z,6.60
2023-03-16T13:31:04.959Z,6.77
2023-03-16T13:33:36.902Z,6.76
2023-03-16T13:36:07.353Z,6.84
2023-03-16T13:38:36.292Z,6.70
2023-03-16T13:41:10.732Z,6.54
2023-03-16T13:43:43.847Z,6.89
2023-03-16T13:46:15.948Z,6.96
2023-03-16T13:48:44.279Z,6.72
2023-03-16T13:51:17.709Z,6.91
2023-03-16T13:53:46.091Z,6.89
2023-03-16T13:56:18.815Z,6.59
2023-03-16T13:58:49.788Z,6.39
2023-03-16T14:01:26.121Z,6.41
2023-03-16T14:03:56.546Z,6.48
2023-03-16T14:06:26.875Z,6.63
2023-03-16T14:08:58.791Z,6.67
2023-03-16T14:11:29.533Z,6.46
2023-03-16T14:13:59.450Z,6.46
2023-03-16T14:16:29.841Z,6.42
2023-03-16T14:19:02.163Z,6.56
2023-03-16T14:21:31.950Z,6.54
2023-03-16T14:24:02.082Z,6.61
2023-03-16T14:26:41.134Z,6.60
2023-03-16T14:29:18.843Z,6.49
2023-03-16T14:31:46.873Z,6.56
2023-03-16T14:34:23.694Z,6.68
2023-03-16T14:36:51.604Z,6.54
2023-03-16T14:39:22.141Z,6.35
2023-03-16T14:41:53.546Z,6.20
2023-03-16T14:44:24.503Z,6.15
2023-03-16T14:46:56.477Z,6.12
2023-03-16T14:49:28.317Z,6.09
2023-03-16T14:52:00.538Z,5.87
2023-03-16T14:54:29.491Z,5.83
2023-03-16T14:57:01.423Z,6.02
2023-03-16T14:59:29.895Z,5.80
2023-03-16T15:01:59.317Z,5.98
2023-03-16T15:04:31.821Z,6.00
2023-03-16T15:07:00.111Z,6.13
2023-03-16T15:09:37.185Z,6.02
2023-03-16T15:12:15.298Z,6.21
2023-03-16T15:15:01.152Z,6.14
2023-03-16T15:17:29.406Z,6.31
2023-03-16T15:19:57.369Z,6.37
2023-03-16T15:22:29.397Z,6.48
2023-03-16T15:24:58.572Z,6.38
2023-03-16T15:27:34.367Z,6.45
2023-03-16T15:30:02.517Z,6.59
2023-03-16T15:32:30.517Z,6.64
2023-03-16T15:34:58.762Z,6.64
2023-03-16T15:37:27.913Z,6.80
2023-03-16T15:39:55.900Z,6.82
2023-03-16T15:42:26.044Z,6.75
2023-03-16T15:44:55.419Z,6.90
2023-03-16T15:47:23.420Z,7.08
2023-03-16T15:49:51.354Z,7.06
2023-03-16T15:52:33.251Z,7.03
2023-03-16T15:55:07.754Z,6.95
2023-03-16T15:57:36.812Z,6.69
2023-03-16T16:00:07.454Z,6.91
2023-03-16T16:02:35.389Z,6.87
2023-03-16T16:05:03.551Z,6.92
2023-03-16T16:07:31.540Z,6.70
2023-03-16T16:09:59.435Z,6.75
2023-03-16T16:12:28.735Z,6.63
2023-03-16T16:14:57.009Z,6.63
2023-03-16T16:17:48.084Z,6.83
2023-03-16T16:20:23.984Z,6.94
2023-03-16T16:22:53.109Z,7.05
2023-03-16T16:25:23.940Z,6.88
2023-03-16T16:27:52.215Z,6.54
2023-03-16T16:30:26.074Z,6.79
2023-03-16T16:32:58.675Z,6.88
2023-03-16T16:35:29.615Z,6.89
2023-03-16T16:37:57.700Z,6.95
2023-03-16T16:40:26.826Z,6.98
2023-03-16T16:42:55.465Z,6.96
2023-03-16T16:45:25.953Z,6.99
2023-03-16T16:47:56.086Z,7.08
2023-03-16T16:50:25.625Z,7.10
2023-03-16T16:52:54.837Z,7.02
2023-03-16T16:55:24.394Z,6.89
2023-03-16T16:57:55.962Z,6.76
2023-03-16T17:00:26.196Z,6.97
2023-03-16T17:02:58.288Z,6.77
2023-03-16T17:05:30.223Z,6.95
2023-03-16T17:08:03.596Z,6.94
2023-03-16T17:10:31.631Z,6.99
2023-03-16T17:12:59.641Z,6.69
2023-03-16T17:15:30.379Z,6.93
2023-03-16T17:18:05.115Z,6.92
2023-03-16T17:20:34.464Z,6.96
2023-03-16T17:23:02.742Z,7.08
2023-03-16T17:25:32.555Z,7.07
2023-03-16T17:28:00.512Z,6.86
2023-03-16T17:30:32.573Z,6.91
2023-03-16T17:33:11.268Z,7.07
2023-03-16T17:35:39.250Z,7.13
2023-03-16T17:38:17.647Z,7.18
2023-03-16T17:40:46.347Z,7.22
2023-03-16T17:43:16.196Z,7.21
2023-03-16T17:45:45.243Z,7.21
2023-03-16T17:48:17.902Z,6.95
2023-03-16T17:50:46.862Z,7.09
2023-03-16T17:53:15.029Z,7.10
2023-03-16T17:55:43.469Z,7.12
2023-03-16T17:58:24.011Z,7.14
2023-03-16T18:00:52.859Z,7.10
2023-03-16T18:03:25.252Z,7.01
2023-03-16T18:05:53.372Z,7.07
2023-03-16T18:08:25.801Z,7.05
2023-03-16T18:10:55.892Z,6.94
2023-03-16T18:13:27.370Z,6.85
2023-03-16T18:15:57.401Z,6.81
2023-03-16T18:18:29.487Z,6.72
2023-03-16T18:21:00.464Z,6.43
2023-03-16T18:23:30.453Z,6.76
2023-03-16T18:26:02.229Z,6.92
2023-03-16T18:28:30.752Z,6.81
2023-03-16T18:30:59.742Z,6.69
2023-03-16T18:33:31.653Z,6.68
2023-03-16T18:36:01.653Z,6.71
2023-03-16T18:38:32.309Z,6.83
2023-03-16T18:41:02.140Z,6.92
2023-03-16T18:43:30.842Z,6.86
2023-03-16T18:45:58.801Z,6.76
2023-03-16T18:48:30.944Z,6.78
2023-03-16T18:50:58.985Z,6.85
2023-03-16T18:53:28.964Z,6.63
2023-03-16T18:55:57.614Z,6.41
2023-03-16T18:58:25.996Z,6.14
2023-03-16T19:00:56.620Z,5.90
2023-03-16T19:03:29.331Z,5.80
2023-03-16T19:05:59.306Z,5.91
2023-03-16T19:08:29.286Z,5.99
2023-03-16T19:10:59.538Z,5.91
2023-03-16T19:13:27.949Z,5.98
2023-03-16T19:15:57.886Z,5.96
2023-03-16T19:18:26.770Z,5.76
2023-03-16T19:20:57.241Z,5.74
2023-03-16T19:23:29.271Z,5.91
2023-03-16T19:25:58.029Z,5.98
2023-03-16T19:28:33.871Z,5.90
2023-03-16T19:31:03.288Z,5.80
2023-03-16T19:33:31.209Z,5.87
2023-03-16T19:36:00.548Z,5.94
2023-03-16T19:38:28.529Z,5.73
2023-03-16T19:40:58.465Z,5.91
2023-03-16T19:43:27.889Z,6.00
2023-03-16T19:45:56.719Z,6.05
2023-03-16T19:48:32.012Z,5.96
2023-03-16T19:51:01.932Z,5.77
2023-03-16T19:53:29.903Z,5.85
2023-03-16T19:55:57.871Z,5.93
2023-03-16T19:58:32.136Z,5.78
2023-03-16T20:01:01.196Z,5.87
2023-03-16T20:03:29.508Z,5.93
2023-03-16T20:05:57.466Z,5.87
2023-03-16T20:08:28.662Z,5.67
2023-03-16T20:11:03.286Z,5.80
2023-03-16T20:13:32.024Z,5.89
2023-03-16T20:16:00.601Z,5.80
2023-03-16T20:18:29.457Z,5.86
2023-03-16T20:20:57.410Z,5.86
2023-03-16T20:23:28.330Z,5.93
2023-03-16T20:26:02.033Z,5.82
2023-03-16T20:28:33.030Z,5.90
2023-03-16T20:31:01.376Z,5.89
2023-03-16T20:33:29.536Z,5.87
2023-03-16T20:35:57.545Z,6.00
2023-03-16T20:38:26.895Z,6.02
2023-03-16T20:40:56.096Z,5.69
2023-03-16T20:43:26.511Z,5.83
2023-03-16T20:45:56.781Z,5.99
2023-03-16T20:48:26.105Z,6.06
2023-03-16T20:50:54.566Z,5.94
2023-03-16T20:53:22.935Z,6.00
2023-03-16T20:55:54.618Z,6.10
2023-03-16T20:58:25.558Z,6.01
2023-03-16T21:00:57.651Z,6.09
2023-03-16T21:03:27.686Z,5.87
2023-03-16T21:05:59.623Z,5.94
2023-03-16T21:08:28.635Z,5.97
2023-03-16T21:10:59.906Z,5.76
2023-03-16T21:13:31.450Z,5.80
2023-03-16T21:16:01.862Z,5.86
2023-03-16T21:18:30.866Z,6.00
2023-03-16T21:20:58.966Z,5.94
2023-03-16T21:23:26.964Z,5.99
2023-03-16T21:25:58.394Z,5.91
2023-03-16T21:28:28.916Z,6.04
2023-03-16T21:30:58.874Z,6.05
2023-03-16T21:33:31.189Z,6.18
2023-03-16T21:35:59.807Z,6.03
2023-03-16T21:38:29.262Z,6.02
2023-03-16T21:40:59.652Z,6.16
2023-03-16T21:43:28.794Z,6.21
2023-03-16T21:45:57.503Z,6.10
2023-03-16T21:48:28.289Z,6.16
2023-03-16T21:50:56.302Z,6.18
2023-03-16T21:53:27.236Z,6.04
2023-03-16T21:55:57.204Z,6.04
2023-03-16T21:58:27.243Z,6.18
2023-03-16T22:00:57.089Z,5.97
2023-03-16T22:03:33.027Z,6.02
2023-03-16T22:06:07.007Z,6.08
2023-03-16T22:08:35.524Z,6.13
2023-03-16T22:11:04.018Z,6.16
2023-03-16T22:13:34.624Z,6.04
2023-03-16T22:16:03.604Z,6.17
2023-03-16T22:18:35.155Z,6.14
2023-03-16T22:21:15.235Z,6.12
2023-03-16T22:23:43.187Z,6.04
2023-03-16T22:26:17.377Z,6.10
2023-03-16T22:28:48.313Z,5.78
2023-03-16T22:31:19.753Z,5.97
2023-03-16T22:33:48.965Z,5.98
2023-03-16T22:36:19.786Z,5.96
2023-03-16T22:38:54.127Z,5.93
2023-03-16T22:41:21.833Z,5.94
2023-03-16T22:43:51.290Z,5.83
2023-03-16T22:46:21.724Z,5.75
2023-03-16T22:48:49.840Z,5.81
2023-03-16T22:51:23.797Z,5.91
2023-03-16T22:53:54.182Z,5.69
2023-03-16T22:56:23.223Z,5.66
2023-03-16T22:58:56.287Z,5.45
2023-03-16T23:01:29.482Z,5.57
2023-03-16T23:03:57.416Z,5.64
2023-03-16T23:06:27.012Z,5.50
2023-03-16T23:08:56.114Z,5.49
2023-03-16T23:11:27.319Z,5.40
2023-03-16T23:13:58.173Z,5.21
2023-03-16T23:16:29.313Z,5.28
2023-03-16T23:18:57.771Z,5.33
2023-03-16T23:21:27.951Z,5.31
2023-03-16T23:24:03.664Z,5.13
2023-03-16T23:26:32.801Z,5.13
2023-03-16T23:29:02.162Z,5.13
2023-03-16T23:31:30.800Z,5.20
2023-03-16T23:33:58.851Z,5.15
2023-03-16T23:36:27.427Z,4.96
2023-03-16T23:38:55.498Z,4.98
2023-03-16T23:41:25.378Z,4.94
2023-03-16T23:43:54.208Z,4.98
2023-03-16T23:46:26.143Z,5.02
2023-03-16T23:48:57.061Z,5.07
2023-03-16T23:51:28.656Z,5.07
2023-03-16T23:53:56.788Z,4.92
2023-03-16T23:56:26.250Z,5.00
2023-03-16T23:58:54.370Z,4.95
